createdAt,value
2022-12-07T00:00:46.013Z,99.99
2022-12-07T00:01:46.090Z,99.99
2022-12-07T00:02:46.051Z,99.99
2022-12-07T00:03:46.105Z,99.99
2022-12-07T00:04:46.088Z,99.99
2022-12-07T00:05:46.105Z,99.99
2022-12-07T00:06:46.128Z,99.99
2022-12-07T00:07:46.168Z,99.99
2022-12-07T00:08:46.162Z,99.99
2022-12-07T00:09:46.181Z,99.99
2022-12-07T00:10:46.199Z,99.99
2022-12-07T00:11:46.220Z,99.99
2022-12-07T00:12:46.237Z,99.99
2022-12-07T00:13:46.258Z,99.99
2022-12-07T00:14:46.277Z,99.99
2022-12-07T00:15:46.296Z,99.99
2022-12-07T00:16:46.388Z,99.99
2022-12-07T00:17:46.333Z,99.99
2022-12-07T00:18:46.352Z,99.99
2022-12-07T00:19:46.370Z,99.99
2022-12-07T00:20:46.392Z,99.99
2022-12-07T00:21:46.408Z,99.99
2022-12-07T00:22:46.428Z,99.99
2022-12-07T00:23:46.447Z,99.99
2022-12-07T00:24:46.461Z,99.99
2022-12-07T00:25:46.487Z,99.99
2022-12-07T00:26:46.506Z,99.99
2022-12-07T00:27:46.523Z,99.99
2022-12-07T00:28:46.540Z,99.99
2022-12-07T00:29:46.561Z,99.99
2022-12-07T00:30:46.580Z,99.99
2022-12-07T00:31:46.695Z,99.99
2022-12-07T00:32:46.616Z,99.99
2022-12-07T00:33:46.638Z,99.99
2022-12-07T00:34:46.652Z,99.99
2022-12-07T00:35:46.675Z,99.99
2022-12-07T00:36:46.698Z,99.99
2022-12-07T00:37:46.719Z,99.99
2022-12-07T00:38:46.729Z,99.99
2022-12-07T00:39:46.747Z,99.99
2022-12-07T00:40:46.769Z,99.99
2022-12-07T00:41:46.796Z,99.99
2022-12-07T00:42:46.806Z,99.99
2022-12-07T00:43:46.828Z,99.99
2022-12-07T00:44:46.843Z,99.99
2022-12-07T00:45:46.923Z,99.99
2022-12-07T00:46:46.881Z,99.99
2022-12-07T00:47:46.902Z,99.99
2022-12-07T00:48:46.953Z,99.99
2022-12-07T00:49:46.939Z,99.99
2022-12-07T00:50:46.955Z,99.99
2022-12-07T00:51:46.978Z,99.99
2022-12-07T00:52:47.000Z,99.99
2022-12-07T00:53:47.025Z,99.99
2022-12-07T00:54:47.032Z,99.99
2022-12-07T00:55:47.052Z,99.99
2022-12-07T00:56:47.073Z,99.99
2022-12-07T00:57:47.088Z,99.99
2022-12-07T00:58:47.107Z,99.99
2022-12-07T00:59:47.132Z,99.99
2022-12-07T01:00:47.146Z,99.99
2022-12-07T01:01:47.274Z,99.99
2022-12-07T01:02:47.203Z,99.99
2022-12-07T01:03:47.268Z,99.99
2022-12-07T01:04:47.229Z,99.99
2022-12-07T01:05:47.242Z,99.99
2022-12-07T01:06:47.260Z,99.99
2022-12-07T01:07:47.329Z,99.99
2022-12-07T01:08:47.300Z,99.99
2022-12-07T01:09:47.318Z,99.99
2022-12-07T01:10:47.338Z,99.99
2022-12-07T01:11:47.360Z,99.99
2022-12-07T01:12:47.378Z,99.99
2022-12-07T01:13:47.393Z,99.99
2022-12-07T01:14:47.412Z,99.99
2022-12-07T01:15:47.433Z,99.99
2022-12-07T01:16:47.512Z,99.99
2022-12-07T01:17:47.468Z,99.99
2022-12-07T01:18:47.486Z,99.99
2022-12-07T01:19:47.505Z,99.99
2022-12-07T01:20:47.522Z,99.99
2022-12-07T01:21:47.543Z,99.99
2022-12-07T01:22:47.561Z,99.99
2022-12-07T01:23:47.586Z,99.99
2022-12-07T01:24:47.603Z,99.99
2022-12-07T01:25:47.622Z,99.99
2022-12-07T01:26:47.650Z,99.99
2022-12-07T01:27:47.680Z,99.99
2022-12-07T01:28:47.679Z,99.99
2022-12-07T01:29:47.696Z,99.99
2022-12-07T01:30:47.760Z,99.99
2022-12-07T01:31:47.733Z,99.99
2022-12-07T01:32:47.755Z,99.99
2022-12-07T01:33:47.788Z,99.99
2022-12-07T01:34:47.793Z,99.99
2022-12-07T01:35:47.824Z,99.99
2022-12-07T01:36:47.827Z,99.99
2022-12-07T01:37:47.874Z,99.99
2022-12-07T01:38:47.865Z,99.99
2022-12-07T01:39:47.888Z,99.99
2022-12-07T01:40:47.908Z,99.99
2022-12-07T01:41:47.927Z,99.99
2022-12-07T01:42:47.948Z,99.99
2022-12-07T01:43:47.966Z,99.99
2022-12-07T01:44:47.980Z,99.99
2022-12-07T01:45:48.036Z,99.99
2022-12-07T01:46:48.023Z,99.99
2022-12-07T01:47:48.039Z,99.99
2022-12-07T01:48:48.068Z,99.99
2022-12-07T01:49:48.079Z,99.99
2022-12-07T01:50:48.093Z,99.99
2022-12-07T01:51:48.121Z,99.99
2022-12-07T01:52:48.133Z,99.99
2022-12-07T01:53:48.166Z,99.99
2022-12-07T01:54:48.175Z,99.99
2022-12-07T01:55:48.190Z,99.99
2022-12-07T01:56:48.213Z,99.99
2022-12-07T01:57:48.230Z,99.99
2022-12-07T01:58:48.250Z,99.99
2022-12-07T01:59:48.270Z,99.99
2022-12-07T02:00:48.288Z,99.99
2022-12-07T02:01:48.401Z,99.99
2022-12-07T02:02:48.382Z,99.99
2022-12-07T02:03:48.343Z,99.99
2022-12-07T02:04:48.365Z,99.99
2022-12-07T02:05:48.384Z,99.99
2022-12-07T02:06:48.401Z,99.99
2022-12-07T02:07:48.494Z,99.99
2022-12-07T02:08:48.455Z,99.99
2022-12-07T02:09:48.457Z,99.99
2022-12-07T02:10:48.472Z,99.99
2022-12-07T02:11:48.512Z,99.99
2022-12-07T02:12:48.516Z,99.99
2022-12-07T02:13:48.533Z,99.99
2022-12-07T02:14:48.555Z,99.99
2022-12-07T02:15:48.632Z,99.99
2022-12-07T02:16:48.590Z,99.99
2022-12-07T02:17:48.609Z,99.99
2022-12-07T02:18:48.624Z,99.99
2022-12-07T02:19:48.646Z,99.99
2022-12-07T02:20:48.667Z,99.99
2022-12-07T02:21:48.687Z,99.99
2022-12-07T02:22:48.706Z,99.99
2022-12-07T02:23:48.721Z,99.99
2022-12-07T02:24:48.741Z,99.99
2022-12-07T02:25:48.757Z,99.99
2022-12-07T02:26:48.781Z,99.99
2022-12-07T02:27:48.797Z,99.99
2022-12-07T02:28:48.832Z,99.99
2022-12-07T02:29:48.846Z,99.99
2022-12-07T02:30:48.925Z,99.99
2022-12-07T02:31:48.873Z,99.99
2022-12-07T02:32:48.889Z,99.99
2022-12-07T02:33:48.914Z,99.99
2022-12-07T02:34:48.931Z,99.99
2022-12-07T02:35:48.949Z,99.99
2022-12-07T02:36:48.971Z,99.99
2022-12-07T02:37:48.985Z,99.99
2022-12-07T02:38:49.002Z,99.99
2022-12-07T02:39:49.026Z,99.99
2022-12-07T02:40:49.044Z,99.99
2022-12-07T02:41:49.064Z,99.99
2022-12-07T02:42:49.078Z,99.99
2022-12-07T02:43:49.111Z,99.99
2022-12-07T02:44:49.121Z,99.99
2022-12-07T02:45:49.144Z,99.99
2022-12-07T02:46:49.243Z,99.99
2022-12-07T02:47:49.174Z,99.99
2022-12-07T02:48:49.198Z,99.99
2022-12-07T02:49:49.212Z,99.99
2022-12-07T02:50:49.234Z,99.99
2022-12-07T02:51:49.254Z,99.99
2022-12-07T02:52:49.272Z,99.99
2022-12-07T02:53:49.286Z,99.99
2022-12-07T02:54:49.311Z,99.99
2022-12-07T02:55:49.330Z,99.99
2022-12-07T02:56:49.350Z,99.99
2022-12-07T02:57:49.362Z,99.99
2022-12-07T02:58:49.383Z,99.99
2022-12-07T02:59:49.420Z,99.99
2022-12-07T03:00:49.418Z,99.99
2022-12-07T03:01:49.496Z,99.99
2022-12-07T03:02:49.581Z,99.99
2022-12-07T03:03:49.475Z,99.99
2022-12-07T03:04:49.495Z,99.99
2022-12-07T03:05:49.513Z,99.99
2022-12-07T03:06:49.528Z,99.99
2022-12-07T03:07:49.592Z,99.99
2022-12-07T03:08:49.569Z,99.99
2022-12-07T03:09:49.595Z,99.99
2022-12-07T03:10:49.613Z,99.99
2022-12-07T03:11:49.636Z,99.99
2022-12-07T03:12:49.642Z,99.99
2022-12-07T03:13:49.686Z,99.99
2022-12-07T03:14:49.681Z,99.99
2022-12-07T03:15:49.739Z,99.99
2022-12-07T03:16:49.721Z,99.99
2022-12-07T03:17:49.736Z,99.99
2022-12-07T03:18:49.754Z,99.99
2022-12-07T03:19:49.774Z,99.99
2022-12-07T03:20:49.787Z,99.99
2022-12-07T03:21:49.808Z,99.99
2022-12-07T03:22:49.825Z,99.99
2022-12-07T03:23:49.848Z,99.99
2022-12-07T03:24:49.864Z,99.99
2022-12-07T03:25:49.881Z,99.99
2022-12-07T03:26:49.899Z,99.99
2022-12-07T03:27:49.916Z,99.99
2022-12-07T03:28:49.939Z,99.99
2022-12-07T03:29:49.951Z,99.99
2022-12-07T03:30:50.065Z,99.99
2022-12-07T03:31:49.990Z,99.99
2022-12-07T03:32:50.008Z,99.99
2022-12-07T03:33:50.024Z,99.99
2022-12-07T03:34:50.043Z,99.99
2022-12-07T03:35:50.064Z,99.99
2022-12-07T03:36:50.083Z,99.99
2022-12-07T03:37:50.096Z,99.99
2022-12-07T03:38:50.114Z,99.99
2022-12-07T03:39:50.133Z,99.99
2022-12-07T03:40:50.153Z,99.99
2022-12-07T03:41:50.166Z,99.99
2022-12-07T03:42:50.185Z,99.99
2022-12-07T03:43:50.200Z,99.99
2022-12-07T03:44:50.234Z,99.99
2022-12-07T03:45:50.241Z,99.99
2022-12-07T03:46:50.325Z,99.99
2022-12-07T03:47:50.289Z,99.99
2022-12-07T03:48:50.292Z,99.99
2022-12-07T03:49:50.311Z,99.99
2022-12-07T03:50:50.334Z,99.99
2022-12-07T03:51:50.347Z,99.99
2022-12-07T03:52:50.368Z,99.99
2022-12-07T03:53:50.385Z,99.99
2022-12-07T03:54:50.406Z,99.99
2022-12-07T03:55:50.417Z,99.99
2022-12-07T03:56:50.433Z,99.99
2022-12-07T03:57:50.457Z,99.99
2022-12-07T03:58:50.473Z,99.99
2022-12-07T03:59:50.495Z,99.99
2022-12-07T04:00:50.516Z,99.99
2022-12-07T04:01:50.575Z,99.99
2022-12-07T04:02:50.647Z,99.99
2022-12-07T04:03:50.562Z,99.99
2022-12-07T04:04:50.632Z,99.99
2022-12-07T04:05:50.598Z,99.99
2022-12-07T04:06:50.618Z,99.99
2022-12-07T04:07:50.679Z,99.99
2022-12-07T04:08:50.657Z,99.99
2022-12-07T04:09:50.673Z,99.99
2022-12-07T04:10:50.689Z,99.99
2022-12-07T04:11:50.708Z,99.99
2022-12-07T04:12:50.724Z,99.99
2022-12-07T04:13:50.744Z,99.99
2022-12-07T04:14:50.761Z,99.99
2022-12-07T04:15:50.822Z,99.99
2022-12-07T04:16:50.799Z,99.99
2022-12-07T04:17:50.828Z,99.99
2022-12-07T04:18:50.839Z,99.99
2022-12-07T04:19:50.853Z,99.99
2022-12-07T04:20:50.870Z,99.99
2022-12-07T04:21:50.898Z,99.99
2022-12-07T04:22:50.913Z,99.99
2022-12-07T04:23:50.927Z,99.99
2022-12-07T04:24:50.941Z,99.99
2022-12-07T04:25:50.960Z,99.99
2022-12-07T04:26:50.980Z,99.99
2022-12-07T04:27:50.998Z,99.99
2022-12-07T04:28:51.016Z,99.99
2022-12-07T04:29:51.031Z,99.99
2022-12-07T04:30:51.047Z,99.99
2022-12-07T04:31:51.100Z,99.99
2022-12-07T04:32:51.083Z,99.99
2022-12-07T04:33:51.105Z,99.99
2022-12-07T04:34:55.333Z,99.99
2022-12-07T04:35:51.136Z,99.99
2022-12-07T04:36:51.160Z,99.99
2022-12-07T04:37:51.177Z,99.99
2022-12-07T04:38:51.195Z,99.99
2022-12-07T04:39:51.211Z,99.99
2022-12-07T04:40:51.230Z,99.99
2022-12-07T04:41:51.242Z,99.99
2022-12-07T04:42:51.266Z,99.99
2022-12-07T04:43:51.283Z,99.99
2022-12-07T04:44:51.300Z,99.99
2022-12-07T04:45:51.315Z,99.99
2022-12-07T04:46:51.394Z,99.99
2022-12-07T04:47:51.373Z,99.99
2022-12-07T04:48:51.369Z,99.99
2022-12-07T04:49:51.388Z,99.99
2022-12-07T04:50:51.405Z,99.99
2022-12-07T04:51:51.423Z,99.99
2022-12-07T04:52:51.444Z,99.99
2022-12-07T04:53:51.457Z,99.99
2022-12-07T04:54:51.480Z,99.99
2022-12-07T04:55:51.494Z,99.99
2022-12-07T04:56:51.511Z,99.99
2022-12-07T04:57:51.530Z,99.99
2022-12-07T04:58:51.544Z,99.99
2022-12-07T04:59:51.567Z,99.99
2022-12-07T05:00:51.612Z,99.99
2022-12-07T05:01:51.627Z,99.99
2022-12-07T05:02:51.615Z,99.99
2022-12-07T05:03:51.631Z,99.99
2022-12-07T05:04:51.653Z,99.99
2022-12-07T05:05:51.667Z,99.99
2022-12-07T05:06:51.689Z,99.99
2022-12-07T05:07:51.768Z,99.99
2022-12-07T05:08:51.744Z,99.99
2022-12-07T05:09:51.742Z,99.99
2022-12-07T05:10:51.771Z,99.99
2022-12-07T05:11:51.774Z,99.99
2022-12-07T05:12:51.793Z,99.99
2022-12-07T05:13:51.813Z,99.99
2022-12-07T05:14:51.833Z,99.99
2022-12-07T05:15:51.938Z,99.99
2022-12-07T05:16:51.991Z,99.99
2022-12-07T05:17:51.882Z,99.99
2022-12-07T05:18:51.900Z,99.99
2022-12-07T05:19:51.924Z,99.99
2022-12-07T05:20:51.942Z,99.99
2022-12-07T05:21:51.956Z,99.99
2022-12-07T05:22:51.982Z,99.99
2022-12-07T05:23:51.989Z,99.99
2022-12-07T05:24:52.012Z,99.99
2022-12-07T05:25:52.025Z,99.99
2022-12-07T05:26:52.052Z,99.99
2022-12-07T05:27:59.219Z,99.99
2022-12-07T05:30:49.461Z,99.99
2022-12-07T05:31:49.221Z,99.99
2022-12-07T05:33:42.120Z,99.99
2022-12-07T05:34:42.121Z,99.99
2022-12-07T05:36:46.600Z,99.99
2022-12-07T05:37:46.138Z,99.99
2022-12-07T05:39:39.062Z,99.99
2022-12-07T05:40:39.069Z,99.99
2022-12-07T05:42:43.558Z,99.99
2022-12-07T05:43:43.087Z,99.99
2022-12-07T05:45:47.153Z,99.99
2022-12-07T05:46:47.100Z,99.99
2022-12-07T05:48:51.586Z,99.99
2022-12-07T05:49:51.118Z,99.99
2022-12-07T05:51:55.113Z,99.99
2022-12-07T05:52:55.121Z,99.99
2022-12-07T05:54:48.591Z,99.99
2022-12-07T05:55:48.259Z,99.99
2022-12-07T05:57:52.258Z,99.99
2022-12-07T05:58:52.263Z,99.99
2022-12-07T06:00:56.760Z,99.99
2022-12-07T06:01:56.377Z,99.99
2022-12-07T06:04:00.290Z,99.99
2022-12-07T06:05:00.274Z,99.99
2022-12-07T06:07:05.259Z,99.99
2022-12-07T06:08:06.176Z,99.99
2022-12-07T06:09:04.802Z,99.99
2022-12-07T06:10:04.958Z,99.99
2022-12-07T06:11:04.828Z,99.99
2022-12-07T06:12:04.845Z,99.99
2022-12-07T06:13:04.868Z,99.99
2022-12-07T06:14:04.886Z,99.99
2022-12-07T06:15:04.903Z,99.99
2022-12-07T06:16:04.958Z,99.99
2022-12-07T06:17:04.993Z,99.99
2022-12-07T06:18:04.960Z,99.99
2022-12-07T06:19:04.974Z,99.99
2022-12-07T06:20:05.386Z,99.99
2022-12-07T06:21:05.024Z,99.99
2022-12-07T06:22:05.025Z,99.99
2022-12-07T06:23:05.062Z,99.99
2022-12-07T06:24:05.087Z,99.99
2022-12-07T06:25:08.589Z,99.99
2022-12-07T06:26:05.096Z,99.99
2022-12-07T06:27:05.113Z,99.99
2022-12-07T06:28:05.138Z,99.99
2022-12-07T06:29:05.153Z,99.99
2022-12-07T06:30:05.211Z,99.99
2022-12-07T06:31:09.547Z,99.99
2022-12-07T06:32:05.244Z,99.99
2022-12-07T06:33:05.227Z,99.99
2022-12-07T06:34:05.246Z,99.99
2022-12-07T06:35:05.267Z,99.99
2022-12-07T06:36:05.278Z,99.99
2022-12-07T06:37:05.300Z,99.99
2022-12-07T06:38:05.310Z,99.99
2022-12-07T06:39:05.328Z,99.99
2022-12-07T06:40:05.569Z,99.99
2022-12-07T06:41:05.361Z,99.99
2022-12-07T06:42:05.381Z,99.99
2022-12-07T06:43:05.397Z,99.99
2022-12-07T06:44:05.426Z,99.99
2022-12-07T06:45:05.436Z,99.99
2022-12-07T06:46:05.542Z,99.99
2022-12-07T06:47:39.081Z,99.99
2022-12-07T06:48:05.487Z,99.99
2022-12-07T06:49:05.505Z,99.99
2022-12-07T06:50:05.835Z,99.99
2022-12-07T06:51:05.571Z,99.99
2022-12-07T06:52:05.558Z,99.99
2022-12-07T06:53:05.574Z,99.99
2022-12-07T06:54:05.596Z,99.99
2022-12-07T06:55:05.615Z,99.99
2022-12-07T06:56:05.627Z,99.99
2022-12-07T06:57:05.643Z,99.99
2022-12-07T06:58:05.665Z,99.99
2022-12-07T06:59:05.682Z,99.99
2022-12-07T07:00:06.247Z,99.99
2022-12-07T07:01:05.877Z,99.99
2022-12-07T07:02:05.858Z,99.99
2022-12-07T07:03:05.750Z,99.99
2022-12-07T07:04:05.785Z,99.99
2022-12-07T07:05:05.787Z,99.99
2022-12-07T07:06:05.803Z,99.99
2022-12-07T07:07:05.824Z,99.99
2022-12-07T07:08:21.746Z,99.99
2022-12-07T07:09:05.896Z,99.99
2022-12-07T07:10:05.904Z,99.99
2022-12-07T07:11:05.893Z,99.99
2022-12-07T07:12:05.910Z,99.99
2022-12-07T07:13:05.928Z,99.99
2022-12-07T07:14:05.947Z,99.99
2022-12-07T07:15:05.959Z,99.99
2022-12-07T07:16:05.982Z,99.99
2022-12-07T07:17:06.034Z,99.99
2022-12-07T07:18:07.949Z,99.99
2022-12-07T07:19:06.037Z,99.99
2022-12-07T07:20:06.051Z,99.99
2022-12-07T07:21:06.082Z,99.99
2022-12-07T07:22:06.086Z,99.99
2022-12-07T07:23:06.104Z,99.99
2022-12-07T07:24:06.125Z,99.99
2022-12-07T07:25:06.138Z,99.99
2022-12-07T07:26:06.154Z,99.99
2022-12-07T07:27:06.171Z,99.99
2022-12-07T07:28:06.193Z,99.99
2022-12-07T07:29:06.208Z,99.99
2022-12-07T07:30:06.225Z,99.99
2022-12-07T07:31:06.282Z,99.99
2022-12-07T07:32:07.043Z,99.99
2022-12-07T07:33:06.289Z,99.99
2022-12-07T07:34:06.298Z,99.99
2022-12-07T07:35:06.312Z,99.99
2022-12-07T07:36:06.331Z,99.99
2022-12-07T07:37:06.356Z,99.99
2022-12-07T07:38:06.365Z,99.99
2022-12-07T07:39:06.382Z,99.99
2022-12-07T07:40:06.403Z,99.99
2022-12-07T07:41:06.416Z,99.99
2022-12-07T07:42:06.435Z,99.99
2022-12-07T07:43:06.456Z,99.99
2022-12-07T07:44:06.470Z,99.99
2022-12-07T07:45:06.487Z,99.99
2022-12-07T07:46:06.560Z,99.99
2022-12-07T07:47:06.534Z,99.99
2022-12-07T07:48:06.543Z,99.99
2022-12-07T07:49:06.556Z,99.99
2022-12-07T07:50:06.725Z,99.99
2022-12-07T07:51:06.590Z,99.99
2022-12-07T07:52:06.607Z,99.99
2022-12-07T07:53:06.621Z,99.99
2022-12-07T07:54:06.645Z,99.99
2022-12-07T07:55:06.657Z,99.99
2022-12-07T07:56:06.677Z,99.99
2022-12-07T07:57:06.694Z,99.99
2022-12-07T07:58:06.710Z,99.99
2022-12-07T07:59:06.729Z,99.99
2022-12-07T08:00:06.750Z,99.99
2022-12-07T08:01:06.800Z,99.99
2022-12-07T08:02:06.779Z,99.99
2022-12-07T08:03:06.796Z,99.99
2022-12-07T08:04:06.817Z,99.99
2022-12-07T08:05:06.994Z,99.99
2022-12-07T08:06:06.854Z,99.99
2022-12-07T08:07:06.874Z,99.99
2022-12-07T08:08:06.995Z,99.99
2022-12-07T08:09:06.898Z,99.99
2022-12-07T08:10:06.921Z,99.99
2022-12-07T08:11:07.260Z,99.99
2022-12-07T08:12:06.952Z,99.99
2022-12-07T08:13:06.965Z,99.99
2022-12-07T08:14:06.987Z,99.99
2022-12-07T08:15:07.006Z,99.99
2022-12-07T08:16:07.085Z,99.99
2022-12-07T08:17:07.043Z,99.99
2022-12-07T08:18:07.057Z,99.99
2022-12-07T08:19:07.074Z,99.99
2022-12-07T08:20:07.092Z,99.99
2022-12-07T08:21:07.109Z,99.99
2022-12-07T08:22:07.128Z,99.99
2022-12-07T08:23:07.147Z,99.99
2022-12-07T08:24:07.161Z,99.99
2022-12-07T08:25:07.181Z,99.99
2022-12-07T08:26:07.197Z,99.99
2022-12-07T08:27:07.216Z,99.99
2022-12-07T08:28:07.233Z,99.99
2022-12-07T08:29:07.248Z,99.99
2022-12-07T08:30:07.274Z,99.99
2022-12-07T08:31:07.347Z,99.99
2022-12-07T08:32:09.718Z,99.99
2022-12-07T08:33:07.321Z,99.99
2022-12-07T08:34:07.339Z,99.99
2022-12-07T08:35:07.359Z,99.99
2022-12-07T08:36:07.403Z,99.99
2022-12-07T08:37:07.405Z,99.99
2022-12-07T08:38:07.412Z,99.99
2022-12-07T08:39:30.860Z,99.99
2022-12-07T08:40:07.450Z,99.99
2022-12-07T08:41:07.464Z,99.99
2022-12-07T08:42:07.481Z,99.99
2022-12-07T08:43:07.501Z,99.99
2022-12-07T08:44:07.519Z,99.99
2022-12-07T08:45:07.537Z,99.99
2022-12-07T08:46:07.609Z,99.99
2022-12-07T08:47:07.574Z,99.99
2022-12-07T08:48:07.589Z,99.99
2022-12-07T08:49:07.607Z,99.99
2022-12-07T08:50:07.623Z,99.99
2022-12-07T08:51:07.644Z,99.99
2022-12-07T08:52:07.659Z,99.99
2022-12-07T08:53:07.680Z,99.99
2022-12-07T08:54:07.713Z,99.99
2022-12-07T08:55:07.722Z,99.99
2022-12-07T08:56:07.735Z,99.99
2022-12-07T08:57:07.749Z,99.99
2022-12-07T08:58:07.772Z,99.99
2022-12-07T08:59:07.790Z,99.99
2022-12-07T09:00:07.805Z,99.99
2022-12-07T09:01:07.851Z,99.99
2022-12-07T09:02:07.941Z,99.99
2022-12-07T09:03:07.856Z,99.99
2022-12-07T09:04:07.873Z,99.99
2022-12-07T09:05:13.256Z,99.99
2022-12-07T09:06:08.044Z,99.99
2022-12-07T09:07:08.060Z,99.99
2022-12-07T09:08:08.005Z,99.99
2022-12-07T09:09:07.965Z,99.99
2022-12-07T09:10:07.982Z,99.99
2022-12-07T09:11:08.006Z,99.99
2022-12-07T09:12:08.018Z,99.99
2022-12-07T09:13:08.036Z,99.99
2022-12-07T09:14:08.052Z,99.99
2022-12-07T09:15:08.072Z,99.99
2022-12-07T09:16:08.102Z,99.99
2022-12-07T09:17:08.109Z,99.99
2022-12-07T09:18:08.126Z,99.99
2022-12-07T09:19:08.142Z,99.99
2022-12-07T09:20:08.163Z,99.99
2022-12-07T09:21:08.180Z,99.99
2022-12-07T09:22:08.200Z,99.99
2022-12-07T09:23:08.219Z,99.99
2022-12-07T09:24:08.232Z,99.99
2022-12-07T09:25:08.254Z,99.99
2022-12-07T09:26:10.720Z,99.99
2022-12-07T09:27:08.290Z,99.99
2022-12-07T09:28:08.306Z,99.99
2022-12-07T09:29:08.324Z,99.99
2022-12-07T09:30:08.345Z,99.99
2022-12-07T09:31:23.420Z,99.99
2022-12-07T09:32:11.563Z,99.99
2022-12-07T09:33:08.393Z,99.99
2022-12-07T09:34:08.592Z,99.99
2022-12-07T09:35:08.432Z,99.99
2022-12-07T09:36:08.455Z,99.99
2022-12-07T09:37:08.469Z,99.99
2022-12-07T09:38:08.487Z,99.99
2022-12-07T09:39:08.515Z,99.99
2022-12-07T09:40:08.799Z,99.99
2022-12-07T09:41:08.543Z,99.99
2022-12-07T09:42:08.560Z,99.99
2022-12-07T09:43:08.636Z,99.99
2022-12-07T09:44:08.601Z,99.99
2022-12-07T09:45:08.618Z,99.99
2022-12-07T09:46:08.693Z,99.99
2022-12-07T09:47:08.653Z,99.99
2022-12-07T09:48:08.671Z,99.99
2022-12-07T09:49:08.690Z,99.99
2022-12-07T09:50:08.707Z,99.99
2022-12-07T09:51:08.729Z,99.99
2022-12-07T09:52:08.751Z,99.99
2022-12-07T09:53:08.765Z,99.99
2022-12-07T09:54:08.845Z,99.99
2022-12-07T09:55:08.801Z,99.99
2022-12-07T09:56:08.821Z,99.99
2022-12-07T09:57:08.852Z,99.99
2022-12-07T09:58:08.856Z,99.99
2022-12-07T09:59:08.877Z,99.99
2022-12-07T10:00:08.896Z,99.99
2022-12-07T10:01:08.915Z,99.99
2022-12-07T10:02:08.961Z,99.99
2022-12-07T10:03:08.958Z,99.99
2022-12-07T10:04:08.976Z,99.99
2022-12-07T10:05:09.035Z,99.99
2022-12-07T10:06:09.008Z,99.99
2022-12-07T10:07:09.027Z,99.99
2022-12-07T10:08:09.130Z,99.99
2022-12-07T10:09:09.064Z,99.99
2022-12-07T10:10:09.087Z,99.99
2022-12-07T10:11:09.107Z,99.99
2022-12-07T10:12:09.125Z,99.99
2022-12-07T10:13:09.142Z,99.99
2022-12-07T10:14:09.163Z,99.99
2022-12-07T10:15:09.509Z,99.99
2022-12-07T10:16:09.269Z,99.99
2022-12-07T10:17:09.241Z,99.99
2022-12-07T10:18:09.234Z,99.99
2022-12-07T10:19:09.257Z,99.99
2022-12-07T10:20:09.271Z,99.99
2022-12-07T10:21:09.293Z,99.99
2022-12-07T10:22:09.318Z,99.99
2022-12-07T10:23:09.331Z,99.99
2022-12-07T10:24:16.524Z,99.99
2022-12-07T10:26:13.840Z,99.99
2022-12-07T10:27:13.364Z,99.99
2022-12-07T10:29:17.370Z,99.99
2022-12-07T10:30:17.379Z,99.99
2022-12-07T10:32:21.867Z,99.99
2022-12-07T10:33:21.393Z,99.99
2022-12-07T10:35:25.396Z,99.99
2022-12-07T10:36:25.405Z,99.99
2022-12-07T10:38:29.893Z,99.99
2022-12-07T10:39:29.417Z,99.99
2022-12-07T10:41:33.422Z,99.99
2022-12-07T10:42:33.437Z,99.99
2022-12-07T10:44:37.921Z,99.99
2022-12-07T10:45:46.943Z,99.99
2022-12-07T10:47:41.457Z,99.99
2022-12-07T10:48:41.467Z,99.99
2022-12-07T10:50:46.457Z,99.99
2022-12-07T10:51:45.485Z,99.99
2022-12-07T10:53:49.492Z,99.99
2022-12-07T10:54:49.501Z,99.99
2022-12-07T10:56:53.991Z,99.99
2022-12-07T10:57:53.528Z,99.99
2022-12-07T10:59:46.470Z,99.99
2022-12-07T11:00:46.547Z,99.99
2022-12-07T11:02:50.961Z,99.99
2022-12-07T11:03:50.477Z,99.99
2022-12-07T11:05:54.478Z,99.99
2022-12-07T11:06:54.490Z,99.99
2022-12-07T11:08:58.978Z,99.99
2022-12-07T11:10:13.767Z,99.99
2022-12-07T11:12:02.516Z,99.99
2022-12-07T11:13:02.522Z,99.99
2022-12-07T11:14:02.543Z,99.99
2022-12-07T11:15:02.587Z,99.99
2022-12-07T11:16:02.628Z,99.99
2022-12-07T11:17:02.597Z,99.99
2022-12-07T11:18:02.619Z,99.99
2022-12-07T11:19:02.639Z,99.99
2022-12-07T11:20:02.973Z,99.99
2022-12-07T11:21:02.681Z,99.99
2022-12-07T11:22:02.695Z,99.99
2022-12-07T11:23:02.719Z,99.99
2022-12-07T11:24:02.739Z,99.99
2022-12-07T11:25:02.758Z,99.99
2022-12-07T11:26:02.778Z,99.99
2022-12-07T11:27:02.797Z,99.99
2022-12-07T11:28:02.813Z,99.99
2022-12-07T11:29:02.835Z,99.99
2022-12-07T11:30:03.254Z,99.99
2022-12-07T11:31:03.051Z,99.99
2022-12-07T11:32:02.984Z,99.99
2022-12-07T11:33:02.914Z,99.99
2022-12-07T11:34:02.951Z,99.99
2022-12-07T11:35:02.956Z,99.99
2022-12-07T11:36:02.972Z,99.99
2022-12-07T11:37:02.992Z,99.99
2022-12-07T11:38:03.016Z,99.99
2022-12-07T11:39:03.036Z,99.99
2022-12-07T11:40:03.375Z,99.99
2022-12-07T11:41:03.071Z,99.99
2022-12-07T11:42:03.093Z,99.99
2022-12-07T11:43:03.114Z,99.99
2022-12-07T11:44:03.129Z,99.99
2022-12-07T11:45:03.157Z,99.99
2022-12-07T11:46:03.173Z,99.99
2022-12-07T11:47:03.308Z,99.99
2022-12-07T11:48:03.222Z,99.99
2022-12-07T11:49:03.236Z,99.99
2022-12-07T11:50:03.252Z,99.99
2022-12-07T11:51:03.269Z,99.99
2022-12-07T11:52:03.290Z,99.99
2022-12-07T11:53:03.311Z,99.99
2022-12-07T11:54:03.337Z,99.99
2022-12-07T11:55:03.351Z,99.99
2022-12-07T11:56:03.374Z,99.99
2022-12-07T11:57:03.395Z,99.99
2022-12-07T11:58:03.412Z,99.99
2022-12-07T11:59:03.431Z,99.99
2022-12-07T12:00:03.797Z,99.99
2022-12-07T12:01:03.486Z,99.99
2022-12-07T12:02:03.567Z,99.99
2022-12-07T12:03:03.594Z,99.99
2022-12-07T12:04:03.528Z,99.99
2022-12-07T12:05:03.549Z,99.99
2022-12-07T12:06:03.567Z,99.99
2022-12-07T12:10:03.976Z,99.73
2022-12-07T12:11:03.667Z,98.97
2022-12-07T12:15:04.103Z,99.02
2022-12-07T12:16:03.816Z,99.78
2022-12-07T12:17:03.787Z,99.99
2022-12-07T12:18:03.809Z,99.99
2022-12-07T12:19:03.843Z,99.59
2022-12-07T12:20:03.847Z,97.88
2022-12-07T12:21:03.872Z,97.69
2022-12-07T12:22:03.885Z,97.50
2022-12-07T12:23:03.916Z,97.78
2022-12-07T12:24:03.931Z,97.88
2022-12-07T12:25:04.225Z,97.88
2022-12-07T12:26:04.060Z,97.78
2022-12-07T12:27:03.992Z,98.45
2022-12-07T12:28:04.010Z,98.74
2022-12-07T12:29:04.029Z,98.21
2022-12-07T12:30:04.052Z,97.64
2022-12-07T12:31:04.068Z,97.17
2022-12-07T12:32:04.125Z,97.64
2022-12-07T12:33:04.112Z,98.02
2022-12-07T12:34:04.126Z,98.40
2022-12-07T12:35:04.550Z,98.21
2022-12-07T12:36:04.288Z,98.50
2022-12-07T12:37:04.187Z,98.31
2022-12-07T12:38:04.208Z,97.92
2022-12-07T12:39:04.225Z,98.79
2022-12-07T12:40:04.247Z,98.31
2022-12-07T12:41:04.263Z,98.31
2022-12-07T12:42:04.285Z,98.50
2022-12-07T12:43:04.304Z,98.50
2022-12-07T12:44:04.324Z,98.50
2022-12-07T12:45:04.653Z,98.69
2022-12-07T12:46:04.402Z,99.35
2022-12-07T12:47:04.388Z,98.88
2022-12-07T12:48:04.403Z,98.31
2022-12-07T12:49:04.423Z,98.02
2022-12-07T12:50:04.443Z,99.35
2022-12-07T12:51:04.462Z,98.79
2022-12-07T12:52:04.484Z,98.50
2022-12-07T12:53:04.523Z,98.59
2022-12-07T12:54:04.541Z,99.07
2022-12-07T12:55:04.922Z,98.50
2022-12-07T12:56:04.560Z,98.40
2022-12-07T12:57:04.581Z,97.92
2022-12-07T12:58:04.601Z,98.12
2022-12-07T12:59:04.621Z,98.02
2022-12-07T13:00:04.639Z,98.21
2022-12-07T13:01:04.683Z,98.40
2022-12-07T13:02:04.720Z,98.97
2022-12-07T13:03:08.772Z,98.97
2022-12-07T13:04:04.719Z,99.26
2022-12-07T13:05:05.105Z,99.26
2022-12-07T13:06:04.761Z,99.54
2022-12-07T13:07:04.779Z,99.54
2022-12-07T13:08:05.005Z,98.79
2022-12-07T13:09:04.817Z,98.79
2022-12-07T13:10:04.835Z,98.88
2022-12-07T13:11:04.858Z,98.97
2022-12-07T13:12:04.878Z,99.07
2022-12-07T13:13:04.894Z,98.79
2022-12-07T13:14:04.917Z,99.21
2022-12-07T13:15:05.305Z,98.69
2022-12-07T13:16:04.958Z,98.93
2022-12-07T13:17:05.031Z,98.93
2022-12-07T13:18:04.996Z,98.17
2022-12-07T13:19:05.018Z,97.78
2022-12-07T13:20:05.044Z,97.22
2022-12-07T13:21:05.055Z,97.31
2022-12-07T13:22:05.076Z,97.41
2022-12-07T13:23:05.155Z,97.69
2022-12-07T13:24:05.116Z,97.55
2022-12-07T13:25:05.509Z,97.64
2022-12-07T13:26:05.157Z,97.55
2022-12-07T13:27:05.174Z,96.60
2022-12-07T13:28:05.195Z,96.60
2022-12-07T13:29:05.218Z,96.55
2022-12-07T13:30:05.235Z,96.31